Time;durP1;ratioP1;P1;durP2;ratioP2;P2;SDS_P1;SDS_P2;PMS_P1;PMS_P2;Temp;Humidity;BMP_temperature;BMP_pressure;BME280_temperature;BME280_humidity;BME280_pressure;Samples;Min_cycle;Max_cycle;Signal;HPM_P1;HPM_P2
2021/12/15 00:01:10;;;;;;;16.58;10.70;;;;;;;;;;5014014;28;20057;-73
2021/12/15 00:03:36;;;;;;;16.52;9.90;;;;;;;;;;5012828;28;20026;-71
2021/12/15 00:06:03;;;;;;;15.00;10.50;;;;;;;;;;5031895;28;20017;-73
2021/12/15 00:08:28;;;;;;;17.00;10.50;;;;;;;;;;5027522;28;20039;-73
2021/12/15 00:10:54;;;;;;;15.38;10.13;;;;;;;;;;5030284;28;20360;-73
2021/12/15 00:13:20;;;;;;;17.10;9.88;;;;;;;;;;5030592;28;20083;-73
2021/12/15 00:15:46;;;;;;;15.20;10.35;;;;;;;;;;5012170;28;20033;-73
2021/12/15 00:18:12;;;;;;;15.40;10.57;;;;;;;;;;5035693;28;20033;-73
2021/12/15 00:20:39;;;;;;;16.73;10.93;;;;;;;;;;5031095;28;20021;-72
2021/12/15 00:23:04;;;;;;;15.25;10.25;;;;;;;;;;5031054;28;20025;-72
2021/12/15 00:25:31;;;;;;;16.65;11.13;;;;;;;;;;5014767;28;20512;-73
2021/12/15 00:27:56;;;;;;;15.55;10.88;;;;;;;;;;5012843;28;20028;-72
2021/12/15 00:30:22;;;;;;;18.48;11.38;;;;;;;;;;5013854;28;20025;-72
2021/12/15 00:32:48;;;;;;;17.30;11.38;;;;;;;;;;5030759;28;20025;-73
2021/12/15 00:35:13;;;;;;;16.70;11.32;;;;;;;;;;5013314;28;20405;-73
2021/12/15 00:37:39;;;;;;;16.02;10.30;;;;;;;;;;5011353;28;20103;-73
2021/12/15 00:40:05;;;;;;;17.70;11.30;;;;;;;;;;5029853;28;20489;-74
2021/12/15 00:42:30;;;;;;;16.42;10.95;;;;;;;;;;5030354;28;20025;-74
2021/12/15 00:44:56;;;;;;;20.35;12.25;;;;;;;;;;5013262;28;20080;-72
2021/12/15 00:47:21;;;;;;;15.55;10.20;;;;;;;;;;5031046;28;20163;-73
2021/12/15 00:49:46;;;;;;;19.40;12.02;;;;;;;;;;5013280;28;20033;-72
2021/12/15 00:52:12;;;;;;;17.25;10.75;;;;;;;;;;5013284;28;20029;-70
2021/12/15 00:54:38;;;;;;;18.50;12.18;;;;;;;;;;5031155;28;20041;-71
2021/12/15 00:57:04;;;;;;;20.63;13.45;;;;;;;;;;5030124;28;20033;-71
2021/12/15 00:59:29;;;;;;;17.77;11.02;;;;;;;;;;4993741;28;20030;-72
2021/12/15 01:01:54;;;;;;;16.45;10.30;;;;;;;;;;5015391;28;20374;-71
2021/12/15 01:04:21;;;;;;;14.80;9.57;;;;;;;;;;5013049;28;20021;-72
2021/12/15 01:06:51;;;;;;;17.58;11.48;;;;;;;;;;5013113;28;20021;-72
2021/12/15 01:09:20;;;;;;;14.20;10.32;;;;;;;;;;5029045;28;20014;-71
2021/12/15 01:12:10;;;;;;;15.98;10.75;;;;;;;;;;5033842;28;20462;-73
2021/12/15 01:20:10;;;;;;;15.10;9.40;;;;;;;;;;5034589;28;20032;-72
2021/12/15 01:22:40;;;;;;;13.90;9.15;;;;;;;;;;5034846;28;20032;-71
2021/12/15 01:25:08;;;;;;;16.63;10.73;;;;;;;;;;5033965;28;20022;-72
2021/12/15 01:27:33;;;;;;;15.13;10.57;;;;;;;;;;5016021;28;20409;-71
2021/12/15 01:29:59;;;;;;;16.20;9.77;;;;;;;;;;5016152;28;20029;-72
2021/12/15 01:32:24;;;;;;;12.82;9.05;;;;;;;;;;4998730;28;20036;-70
2021/12/15 01:34:50;;;;;;;14.82;9.35;;;;;;;;;;5016076;28;20029;-71
2021/12/15 01:37:17;;;;;;;13.60;9.38;;;;;;;;;;5033907;28;20478;-73
2021/12/15 01:39:43;;;;;;;14.82;10.15;;;;;;;;;;5029525;28;20044;-73
2021/12/15 01:42:08;;;;;;;13.73;9.20;;;;;;;;;;5033305;28;20025;-71
2021/12/15 01:47:17;;;;;;;13.98;9.18;;;;;;;;;;5033905;28;20043;-70
2021/12/15 01:49:48;;;;;;;13.00;9.10;;;;;;;;;;5033501;28;20029;-72
2021/12/15 01:52:18;;;;;;;13.68;9.25;;;;;;;;;;5034308;28;20413;-70
2021/12/15 01:54:47;;;;;;;13.82;9.27;;;;;;;;;;5015881;28;20033;-70
2021/12/15 01:57:13;;;;;;;13.43;8.90;;;;;;;;;;5032531;28;20112;-71
2021/12/15 01:59:38;;;;;;;13.02;9.10;;;;;;;;;;5015582;28;20442;-72
2021/12/15 02:02:04;;;;;;;14.20;9.23;;;;;;;;;;5034059;28;20025;-69
2021/12/15 02:04:29;;;;;;;12.25;8.15;;;;;;;;;;5033035;28;20024;-72
2021/12/15 02:06:55;;;;;;;13.27;8.20;;;;;;;;;;5015930;28;20033;-72
2021/12/15 02:09:40;;;;;;;13.70;8.73;;;;;;;;;;5028474;28;20025;-72
2021/12/15 02:12:06;;;;;;;12.32;8.52;;;;;;;;;;5015251;28;20493;-72
2021/12/15 02:14:33;;;;;;;13.38;8.15;;;;;;;;;;5033340;28;20040;-72
2021/12/15 02:16:59;;;;;;;12.82;8.63;;;;;;;;;;5015880;28;20441;-73
2021/12/15 02:19:24;;;;;;;13.60;8.65;;;;;;;;;;5015331;28;20044;-72
2021/12/15 02:21:49;;;;;;;11.38;8.68;;;;;;;;;;5014970;28;20029;-72
2021/12/15 02:24:15;;;;;;;11.27;8.13;;;;;;;;;;5014955;28;20025;-72
2021/12/15 02:26:45;;;;;;;13.30;8.60;;;;;;;;;;5015025;28;20013;-72
2021/12/15 02:29:16;;;;;;;12.45;8.55;;;;;;;;;;5033109;28;20021;-71
2021/12/15 02:31:56;;;;;;;11.90;8.23;;;;;;;;;;5033450;28;20249;-73
2021/12/15 02:39:39;;;;;;;10.05;6.10;;;;;;;;;;5026985;28;20561;-72
2021/12/15 02:42:05;;;;;;;11.95;6.95;;;;;;;;;;4997991;28;20116;-71
2021/12/15 02:44:30;;;;;;;8.15;6.32;;;;;;;;;;5033591;28;20021;-72
2021/12/15 02:46:56;;;;;;;9.20;6.40;;;;;;;;;;5015134;28;20384;-71
2021/12/15 02:49:23;;;;;;;8.80;5.82;;;;;;;;;;5032825;28;20421;-71
2021/12/15 02:51:50;;;;;;;7.93;5.68;;;;;;;;;;5032635;28;20017;-72
2021/12/15 02:54:16;;;;;;;8.10;6.28;;;;;;;;;;5032705;28;20033;-73
2021/12/15 02:56:42;;;;;;;10.05;6.57;;;;;;;;;;4997772;28;20412;-72
2021/12/15 02:59:10;;;;;;;9.75;6.80;;;;;;;;;;5014878;28;20017;-70
2021/12/15 03:02:03;;;;;;;7.43;5.75;;;;;;;;;;5032334;28;20105;-70
2021/12/15 03:04:47;;;;;;;10.25;7.03;;;;;;;;;;5014402;28;20033;-71
2021/12/15 03:07:27;;;;;;;7.97;6.00;;;;;;;;;;5032465;28;20056;-69
2021/12/15 03:15:33;;;;;;;9.23;6.28;;;;;;;;;;5032544;28;20136;-73
2021/12/15 03:18:03;;;;;;;8.65;5.80;;;;;;;;;;5016069;28;20026;-72
2021/12/15 03:20:30;;;;;;;7.57;5.70;;;;;;;;;;5031974;28;20032;-72
2021/12/15 03:22:56;;;;;;;7.65;6.28;;;;;;;;;;5032360;28;20021;-72
2021/12/15 03:25:24;;;;;;;8.25;5.93;;;;;;;;;;5031667;28;20017;-73
2021/12/15 03:33:54;;;;;;;8.98;6.55;;;;;;;;;;5026907;28;20068;-72
2021/12/15 03:36:08;;;;;;;6.75;5.70;;;;;;;;;;5030920;28;20044;-72
2021/12/15 03:38:34;;;;;;;7.35;5.38;;;;;;;;;;5027424;28;20069;-73
2021/12/15 03:41:00;;;;;;;8.40;5.45;;;;;;;;;;5031081;28;20047;-72
2021/12/15 03:43:25;;;;;;;8.48;6.20;;;;;;;;;;4992682;28;20022;-74
2021/12/15 03:45:53;;;;;;;6.85;5.63;;;;;;;;;;5031383;28;20025;-72
2021/12/15 03:48:20;;;;;;;7.43;5.65;;;;;;;;;;5031455;28;20116;-71
2021/12/15 03:50:46;;;;;;;7.03;5.22;;;;;;;;;;5031592;28;20025;-71
2021/12/15 03:53:12;;;;;;;6.13;4.82;;;;;;;;;;5032074;28;20140;-73
2021/12/15 03:55:38;;;;;;;7.95;5.82;;;;;;;;;;5031469;28;20105;-74
2021/12/15 03:58:08;;;;;;;6.78;5.38;;;;;;;;;;5031099;28;20036;-71
2021/12/15 04:00:35;;;;;;;7.03;5.38;;;;;;;;;;5014065;28;20018;-71
2021/12/15 04:03:00;;;;;;;7.32;5.95;;;;;;;;;;5014146;28;20099;-72
2021/12/15 04:05:26;;;;;;;7.65;5.60;;;;;;;;;;5031168;28;20053;-71
2021/12/15 04:07:52;;;;;;;6.63;4.78;;;;;;;;;;5028084;28;20065;-72
2021/12/15 04:10:18;;;;;;;6.78;5.78;;;;;;;;;;5029606;28;20485;-70
2021/12/15 04:12:44;;;;;;;7.15;5.40;;;;;;;;;;5031416;28;20028;-70
2021/12/15 04:17:51;;;;;;;6.30;4.75;;;;;;;;;;5031485;28;20454;-73
2021/12/15 04:20:19;;;;;;;6.80;5.18;;;;;;;;;;5031347;28;20474;-71
2021/12/15 04:22:44;;;;;;;7.03;5.40;;;;;;;;;;5013615;28;20032;-72
2021/12/15 04:25:16;;;;;;;7.63;5.53;;;;;;;;;;5031088;28;21301;-73
2021/12/15 04:27:50;;;;;;;7.00;5.53;;;;;;;;;;5030358;28;20025;-70
2021/12/15 04:30:15;;;;;;;7.80;5.78;;;;;;;;;;5031379;28;20530;-73
2021/12/15 04:32:43;;;;;;;6.70;5.38;;;;;;;;;;5031786;28;20116;-72
2021/12/15 04:35:09;;;;;;;7.65;6.00;;;;;;;;;;5013696;28;20030;-72
2021/12/15 04:37:35;;;;;;;7.15;5.45;;;;;;;;;;5012156;28;20079;-70
2021/12/15 04:40:01;;;;;;;5.72;5.13;;;;;;;;;;5026327;28;20024;-71
2021/12/15 04:42:27;;;;;;;8.32;6.03;;;;;;;;;;5012503;28;20014;-71
2021/12/15 04:44:56;;;;;;;7.03;5.35;;;;;;;;;;5033422;28;20091;-74
2021/12/15 04:47:21;;;;;;;7.00;5.57;;;;;;;;;;5034710;28;20030;-72
2021/12/15 04:49:50;;;;;;;6.93;5.53;;;;;;;;;;5035094;28;20028;-73
2021/12/15 04:52:16;;;;;;;7.47;5.65;;;;;;;;;;5035219;28;20029;-71
2021/12/15 04:54:41;;;;;;;7.22;5.50;;;;;;;;;;5035298;28;20037;-72
2021/12/15 04:57:07;;;;;;;6.40;5.32;;;;;;;;;;5033606;28;20021;-72
2021/12/15 04:59:32;;;;;;;7.15;5.43;;;;;;;;;;5035297;28;20021;-74
2021/12/15 05:01:58;;;;;;;6.88;5.68;;;;;;;;;;5016840;28;20024;-74
2021/12/15 05:04:24;;;;;;;7.18;5.75;;;;;;;;;;5034357;28;20030;-74
2021/12/15 05:06:49;;;;;;;8.25;6.15;;;;;;;;;;5034255;28;20528;-72
2021/12/15 05:09:15;;;;;;;5.80;5.13;;;;;;;;;;4987776;28;20025;-70
2021/12/15 05:11:40;;;;;;;6.28;5.13;;;;;;;;;;5033726;28;20473;-73
2021/12/15 05:14:05;;;;;;;6.10;4.93;;;;;;;;;;5013277;28;20031;-70
2021/12/15 05:16:31;;;;;;;6.78;5.53;;;;;;;;;;5034142;28;20074;-70
2021/12/15 05:18:56;;;;;;;7.30;5.70;;;;;;;;;;5034272;28;20025;-69
2021/12/15 05:21:23;;;;;;;6.65;5.25;;;;;;;;;;5034567;28;20037;-70
2021/12/15 05:23:55;;;;;;;6.50;5.28;;;;;;;;;;5034834;28;20025;-71
2021/12/15 05:26:20;;;;;;;7.18;5.28;;;;;;;;;;5014833;28;20030;-71
2021/12/15 05:28:45;;;;;;;7.13;5.15;;;;;;;;;;5034370;28;20017;-71
2021/12/15 05:31:11;;;;;;;6.88;5.40;;;;;;;;;;5034083;28;20032;-71
2021/12/15 05:33:36;;;;;;;7.13;5.32;;;;;;;;;;5031367;28;20037;-71
2021/12/15 05:36:01;;;;;;;6.75;5.75;;;;;;;;;;5033775;28;20053;-71
2021/12/15 05:38:27;;;;;;;7.50;5.20;;;;;;;;;;5029633;28;20517;-70
2021/12/15 05:40:52;;;;;;;7.90;5.90;;;;;;;;;;5033793;28;20045;-71
2021/12/15 05:43:18;;;;;;;6.20;5.10;;;;;;;;;;5021560;28;20021;-70
2021/12/15 05:45:44;;;;;;;6.75;4.63;;;;;;;;;;5029267;28;20414;-71
2021/12/15 05:48:10;;;;;;;6.53;4.47;;;;;;;;;;5032050;28;20124;-70
2021/12/15 05:50:36;;;;;;;6.30;4.60;;;;;;;;;;5016037;28;20029;-70
2021/12/15 05:53:02;;;;;;;5.95;4.75;;;;;;;;;;5016373;28;20604;-72
2021/12/15 05:55:28;;;;;;;5.90;4.80;;;;;;;;;;5032721;28;20430;-69
2021/12/15 05:57:53;;;;;;;5.45;4.80;;;;;;;;;;5032113;28;20126;-69
2021/12/15 06:00:20;;;;;;;5.05;4.55;;;;;;;;;;5022590;28;20029;-73
2021/12/15 06:02:46;;;;;;;6.53;4.40;;;;;;;;;;5033323;28;20056;-72
2021/12/15 06:05:12;;;;;;;5.10;4.28;;;;;;;;;;5014456;28;20115;-74
2021/12/15 06:07:37;;;;;;;5.80;4.60;;;;;;;;;;5031629;28;20029;-74
2021/12/15 06:10:04;;;;;;;6.00;4.93;;;;;;;;;;5013185;28;20051;-73
2021/12/15 06:12:29;;;;;;;5.30;4.57;;;;;;;;;;4998778;28;20405;-73
2021/12/15 06:14:54;;;;;;;4.72;4.00;;;;;;;;;;5016203;28;20029;-71
2021/12/15 06:17:25;;;;;;;5.95;4.75;;;;;;;;;;5013394;28;20474;-75
2021/12/15 06:19:50;;;;;;;5.20;4.05;;;;;;;;;;5015509;28;20030;-75
2021/12/15 06:22:19;;;;;;;5.57;4.32;;;;;;;;;;5033574;28;20032;-73
2021/12/15 06:24:44;;;;;;;6.10;3.95;;;;;;;;;;5033465;28;20091;-72
2021/12/15 06:27:17;;;;;;;5.82;4.35;;;;;;;;;;5014552;28;20021;-73
2021/12/15 06:29:42;;;;;;;6.00;4.05;;;;;;;;;;5017123;28;20091;-75
2021/12/15 06:32:07;;;;;;;4.93;3.97;;;;;;;;;;5021423;28;20025;-72
2021/12/15 06:34:33;;;;;;;4.65;3.80;;;;;;;;;;5031998;28;20471;-73
2021/12/15 06:36:58;;;;;;;6.95;5.07;;;;;;;;;;5014790;28;20052;-73
2021/12/15 06:39:23;;;;;;;7.50;5.47;;;;;;;;;;5012765;28;20036;-73
2021/12/15 06:41:49;;;;;;;5.85;5.05;;;;;;;;;;5032153;28;20079;-74
2021/12/15 06:44:16;;;;;;;6.82;5.05;;;;;;;;;;5033064;28;20028;-74
2021/12/15 06:58:10;;;;;;;4.72;4.07;;;;;;;;;;5020488;28;20061;-72
2021/12/15 07:00:17;;;;;;;6.70;4.88;;;;;;;;;;5012856;28;20113;-74
2021/12/15 07:02:42;;;;;;;6.47;5.28;;;;;;;;;;4989573;28;20116;-74
2021/12/15 07:05:08;;;;;;;6.80;5.38;;;;;;;;;;5032057;28;20025;-74
2021/12/15 07:07:35;;;;;;;7.45;5.18;;;;;;;;;;5013434;28;20033;-73
2021/12/15 07:10:00;;;;;;;5.43;4.72;;;;;;;;;;5024105;28;20057;-74
2021/12/15 07:12:26;;;;;;;5.90;5.13;;;;;;;;;;4996227;28;20072;-73
2021/12/15 07:14:51;;;;;;;5.03;4.45;;;;;;;;;;5014648;28;20037;-74
2021/12/15 07:17:21;;;;;;;5.10;3.85;;;;;;;;;;5007245;28;20406;-74
2021/12/15 07:22:43;;;;;;;5.60;4.72;;;;;;;;;;5032158;28;20374;-74
2021/12/15 07:25:10;;;;;;;5.70;4.13;;;;;;;;;;5030053;28;20462;-74
2021/12/15 07:27:35;;;;;;;4.20;3.45;;;;;;;;;;5027491;28;20032;-73
2021/12/15 07:30:03;;;;;;;5.50;3.67;;;;;;;;;;5012809;28;20026;-75
2021/12/15 07:32:29;;;;;;;6.30;4.10;;;;;;;;;;5014053;28;20036;-75
2021/12/15 07:34:54;;;;;;;4.75;3.40;;;;;;;;;;5013131;28;20108;-74
2021/12/15 07:37:19;;;;;;;5.30;3.65;;;;;;;;;;5031648;28;20486;-73
2021/12/15 07:39:54;;;;;;;5.38;3.92;;;;;;;;;;5026974;28;20128;-73
2021/12/15 07:42:29;;;;;;;5.80;4.40;;;;;;;;;;5012638;28;20420;-75
2021/12/15 07:44:54;;;;;;;4.10;3.20;;;;;;;;;;5009700;28;20033;-75
2021/12/15 07:47:20;;;;;;;5.55;3.25;;;;;;;;;;4996861;28;20029;-75
2021/12/15 07:49:45;;;;;;;4.18;3.38;;;;;;;;;;4997754;28;20025;-72
2021/12/15 07:52:10;;;;;;;4.43;3.55;;;;;;;;;;5013512;28;20087;-75
2021/12/15 07:54:36;;;;;;;4.43;3.47;;;;;;;;;;5023001;28;20496;-73
2021/12/15 07:57:03;;;;;;;4.35;3.20;;;;;;;;;;5014527;28;20427;-73
2021/12/15 07:59:29;;;;;;;4.15;2.95;;;;;;;;;;5013548;28;20068;-74
2021/12/15 08:01:54;;;;;;;5.07;3.47;;;;;;;;;;5031046;28;20190;-75
2021/12/15 08:04:19;;;;;;;5.00;3.38;;;;;;;;;;5031244;28;20474;-74
2021/12/15 08:06:46;;;;;;;4.22;3.40;;;;;;;;;;5009290;28;20049;-71
2021/12/15 08:09:11;;;;;;;4.80;3.17;;;;;;;;;;5009188;28;20163;-73
2021/12/15 08:11:37;;;;;;;5.97;4.30;;;;;;;;;;5030319;28;20152;-74
2021/12/15 08:14:02;;;;;;;5.40;3.95;;;;;;;;;;4996929;28;20432;-70
2021/12/15 08:16:27;;;;;;;4.82;3.50;;;;;;;;;;5031356;28;20029;-67
2021/12/15 08:18:53;;;;;;;4.90;3.70;;;;;;;;;;5031494;28;20475;-69
2021/12/15 08:21:18;;;;;;;4.15;3.58;;;;;;;;;;5017292;28;20375;-74
2021/12/15 08:23:43;;;;;;;5.07;3.53;;;;;;;;;;5017849;28;20055;-69
2021/12/15 08:26:09;;;;;;;3.58;3.13;;;;;;;;;;5035639;28;20359;-70
2021/12/15 08:28:34;;;;;;;4.07;3.38;;;;;;;;;;5034783;28;20029;-68
2021/12/15 08:31:00;;;;;;;4.93;3.40;;;;;;;;;;5035772;28;20075;-69
2021/12/15 08:33:26;;;;;;;4.10;2.80;;;;;;;;;;4999517;28;20393;-69
2021/12/15 08:35:53;;;;;;;3.67;2.90;;;;;;;;;;5016857;28;20044;-69
2021/12/15 08:38:19;;;;;;;4.90;3.15;;;;;;;;;;5013378;28;20088;-70
2021/12/15 08:40:45;;;;;;;3.78;3.17;;;;;;;;;;5047444;28;20048;-70
2021/12/15 08:43:11;;;;;;;4.70;2.78;;;;;;;;;;5009823;28;20037;-69
2021/12/15 08:45:37;;;;;;;3.67;3.05;;;;;;;;;;5034182;28;20448;-70
2021/12/15 08:48:04;;;;;;;4.97;3.60;;;;;;;;;;5038301;28;20083;-71
2021/12/15 08:50:31;;;;;;;3.47;2.58;;;;;;;;;;5034671;28;20025;-68
2021/12/15 08:52:57;;;;;;;4.82;3.08;;;;;;;;;;5034718;28;20470;-72
2021/12/15 08:55:23;;;;;;;5.30;3.47;;;;;;;;;;5017515;28;20026;-68
2021/12/15 08:57:52;;;;;;;3.67;3.15;;;;;;;;;;5033945;28;20038;-72
2021/12/15 09:00:18;;;;;;;4.43;3.22;;;;;;;;;;5016427;28;20060;-72
2021/12/15 09:02:44;;;;;;;4.53;3.25;;;;;;;;;;5034708;28;20053;-69
2021/12/15 09:05:09;;;;;;;3.80;2.97;;;;;;;;;;5017181;28;20076;-69
2021/12/15 09:07:35;;;;;;;4.00;2.88;;;;;;;;;;5033367;28;20546;-68
2021/12/15 09:10:00;;;;;;;3.17;2.63;;;;;;;;;;5030032;28;20025;-67
2021/12/15 09:12:25;;;;;;;3.60;2.97;;;;;;;;;;5033552;28;20033;-67
2021/12/15 09:14:51;;;;;;;4.13;2.70;;;;;;;;;;5035052;28;20447;-69
2021/12/15 09:17:16;;;;;;;4.20;3.10;;;;;;;;;;5032910;28;20025;-71
2021/12/15 09:19:41;;;;;;;3.42;2.85;;;;;;;;;;5034211;28;20100;-72
2021/12/15 09:22:07;;;;;;;4.80;3.42;;;;;;;;;;5015974;28;20143;-71
2021/12/15 09:24:33;;;;;;;3.92;3.05;;;;;;;;;;5016982;28;20111;-72
2021/12/15 09:26:58;;;;;;;3.65;3.10;;;;;;;;;;5033682;28;20030;-72
2021/12/15 09:29:24;;;;;;;4.32;3.70;;;;;;;;;;5033514;28;20038;-74
2021/12/15 09:31:49;;;;;;;4.28;3.25;;;;;;;;;;5033291;28;20030;-74
2021/12/15 09:34:18;;;;;;;4.90;4.13;;;;;;;;;;5015413;28;20041;-70
2021/12/15 09:36:44;;;;;;;4.30;3.70;;;;;;;;;;5034150;28;20033;-73
2021/12/15 09:39:12;;;;;;;5.43;4.47;;;;;;;;;;5030251;28;20437;-74
2021/12/15 09:41:37;;;;;;;4.90;3.78;;;;;;;;;;5033429;28;20027;-74
2021/12/15 09:44:08;;;;;;;6.43;3.75;;;;;;;;;;5033287;28;20017;-73
2021/12/15 09:46:41;;;;;;;5.80;4.07;;;;;;;;;;5030645;28;20445;-73
2021/12/15 09:57:27;;;;;;;5.30;4.45;;;;;;;;;;5033251;28;20495;-73
2021/12/15 10:02:54;;;;;;;6.20;4.55;;;;;;;;;;4972779;28;20070;-73
2021/12/15 10:10:46;;;;;;;6.35;4.95;;;;;;;;;;4986284;28;20026;-72
2021/12/15 10:18:50;;;;;;;5.25;4.40;;;;;;;;;;4991261;28;20033;-72
2021/12/15 10:21:29;;;;;;;7.00;4.32;;;;;;;;;;4953279;29;20403;-74
2021/12/15 10:23:56;;;;;;;4.82;4.32;;;;;;;;;;4953962;28;20106;-72
2021/12/15 10:26:21;;;;;;;5.85;4.18;;;;;;;;;;4964786;28;20043;-72
2021/12/15 10:28:52;;;;;;;6.05;4.50;;;;;;;;;;4971827;28;20476;-73
2021/12/15 10:31:17;;;;;;;6.07;4.65;;;;;;;;;;4971365;28;20050;-73
2021/12/15 10:33:48;;;;;;;5.85;4.78;;;;;;;;;;4955816;28;20219;-73
2021/12/15 10:36:19;;;;;;;5.82;4.38;;;;;;;;;;4955101;28;20314;-73
2021/12/15 10:38:47;;;;;;;6.60;4.72;;;;;;;;;;4985395;28;20077;-72
2021/12/15 10:41:32;;;;;;;7.15;4.80;;;;;;;;;;5008960;28;20037;-73
2021/12/15 10:44:04;;;;;;;6.05;4.53;;;;;;;;;;5032075;28;20026;-72
2021/12/15 10:46:29;;;;;;;6.45;5.30;;;;;;;;;;5030953;28;20025;-72
2021/12/15 10:49:00;;;;;;;6.38;4.95;;;;;;;;;;5032494;28;20021;-73
2021/12/15 10:51:44;;;;;;;5.95;4.13;;;;;;;;;;5036711;28;20032;-73
2021/12/15 10:54:16;;;;;;;5.20;3.88;;;;;;;;;;5045400;28;20385;-73
2021/12/15 10:56:47;;;;;;;4.90;4.35;;;;;;;;;;5026993;28;20017;-73
2021/12/15 10:59:13;;;;;;;5.75;4.13;;;;;;;;;;5032154;28;20030;-73
2021/12/15 11:01:41;;;;;;;7.13;4.78;;;;;;;;;;5031768;28;20064;-73
2021/12/15 11:04:21;;;;;;;8.40;5.30;;;;;;;;;;5032038;28;20155;-71
2021/12/15 11:06:59;;;;;;;6.20;4.78;;;;;;;;;;5032243;28;20025;-72
2021/12/15 11:09:25;;;;;;;5.88;5.05;;;;;;;;;;5020255;28;20028;-72
2021/12/15 11:11:59;;;;;;;5.75;4.88;;;;;;;;;;5031693;28;20075;-73
2021/12/15 11:14:27;;;;;;;7.63;5.07;;;;;;;;;;5045150;28;20057;-72
2021/12/15 11:17:03;;;;;;;6.55;5.03;;;;;;;;;;5030746;28;20064;-73
2021/12/15 11:19:43;;;;;;;6.60;5.07;;;;;;;;;;5019821;28;20021;-73
2021/12/15 11:22:27;;;;;;;5.72;4.72;;;;;;;;;;5032120;28;20053;-72
2021/12/15 11:24:52;;;;;;;6.82;4.60;;;;;;;;;;5032168;28;20017;-73
2021/12/15 11:27:17;;;;;;;6.47;5.40;;;;;;;;;;5040251;28;20025;-73
2021/12/15 11:29:43;;;;;;;6.63;5.20;;;;;;;;;;5032116;28;20582;-72
2021/12/15 11:32:28;;;;;;;6.85;5.10;;;;;;;;;;5013720;28;20025;-71
2021/12/15 11:35:23;;;;;;;6.10;4.93;;;;;;;;;;5031534;28;20013;-72
2021/12/15 11:37:51;;;;;;;7.25;5.32;;;;;;;;;;4983205;28;20073;-71
2021/12/15 11:40:22;;;;;;;7.68;5.20;;;;;;;;;;4989320;28;20104;-70
2021/12/15 11:42:48;;;;;;;8.15;6.30;;;;;;;;;;4990421;28;20014;-72
2021/12/15 11:45:13;;;;;;;8.55;5.80;;;;;;;;;;4992615;28;20018;-72
2021/12/15 11:47:39;;;;;;;6.95;5.47;;;;;;;;;;4989058;28;20037;-72
2021/12/15 11:50:13;;;;;;;8.25;6.00;;;;;;;;;;4991622;28;20034;-73
2021/12/15 11:52:44;;;;;;;7.73;5.30;;;;;;;;;;4987709;28;20018;-72
2021/12/15 11:55:21;;;;;;;6.45;5.43;;;;;;;;;;4992410;28;20265;-72
2021/12/15 11:57:47;;;;;;;7.00;5.22;;;;;;;;;;4994224;28;20025;-72
2021/12/15 12:00:14;;;;;;;7.63;5.70;;;;;;;;;;4992628;28;20068;-73
2021/12/15 12:02:42;;;;;;;6.65;5.20;;;;;;;;;;4992158;28;20077;-73
2021/12/15 12:05:12;;;;;;;7.28;5.90;;;;;;;;;;4990549;28;20014;-72
2021/12/15 12:07:44;;;;;;;8.23;5.55;;;;;;;;;;4989022;28;20144;-73
2021/12/15 12:10:13;;;;;;;9.55;5.50;;;;;;;;;;4985053;28;20026;-73
2021/12/15 12:12:48;;;;;;;7.53;5.82;;;;;;;;;;4983480;28;20042;-73
2021/12/15 12:15:14;;;;;;;8.68;5.90;;;;;;;;;;4985282;28;20027;-72
2021/12/15 12:17:42;;;;;;;9.10;6.68;;;;;;;;;;4990591;28;20058;-73
2021/12/15 12:20:15;;;;;;;7.95;6.43;;;;;;;;;;4991062;28;20027;-70
2021/12/15 12:22:43;;;;;;;8.05;5.88;;;;;;;;;;4990014;28;20064;-72
2021/12/15 12:25:11;;;;;;;7.78;5.65;;;;;;;;;;5005857;28;20022;-71
2021/12/15 12:27:37;;;;;;;9.18;5.85;;;;;;;;;;4981806;28;20030;-72
2021/12/15 12:30:05;;;;;;;7.75;5.63;;;;;;;;;;4992317;28;20030;-72
2021/12/15 12:32:31;;;;;;;7.15;5.65;;;;;;;;;;4986688;28;20018;-70
2021/12/15 12:34:57;;;;;;;7.45;5.68;;;;;;;;;;4988587;28;20038;-72
2021/12/15 12:37:22;;;;;;;7.97;6.57;;;;;;;;;;5006207;28;20065;-73
2021/12/15 12:39:54;;;;;;;7.82;5.97;;;;;;;;;;5031434;28;20103;-72
2021/12/15 12:42:40;;;;;;;7.72;6.05;;;;;;;;;;5024695;28;20068;-71
2021/12/15 12:45:12;;;;;;;7.10;5.47;;;;;;;;;;5013136;28;20026;-70
2021/12/15 12:47:44;;;;;;;8.27;6.15;;;;;;;;;;5014356;28;20108;-70
2021/12/15 12:50:49;;;;;;;8.48;6.28;;;;;;;;;;5013396;28;20022;-72
2021/12/15 13:01:09;;;;;;;5.97;5.35;;;;;;;;;;5030983;28;20027;-71
2021/12/15 13:03:44;;;;;;;7.50;5.90;;;;;;;;;;5012789;28;20072;-73
2021/12/15 13:06:11;;;;;;;8.05;5.57;;;;;;;;;;5032909;28;20017;-72
2021/12/15 13:08:44;;;;;;;6.55;5.70;;;;;;;;;;5026611;28;20030;-70
2021/12/15 13:11:15;;;;;;;7.53;5.68;;;;;;;;;;5033496;28;20021;-71
2021/12/15 13:13:50;;;;;;;7.20;6.50;;;;;;;;;;5038980;28;20033;-72
2021/12/15 13:16:22;;;;;;;8.95;7.30;;;;;;;;;;5016144;28;20028;-72
2021/12/15 13:18:50;;;;;;;11.73;9.98;;;;;;;;;;5037553;28;20116;-72
2021/12/15 13:21:35;;;;;;;9.70;8.18;;;;;;;;;;5034407;28;20025;-71
2021/12/15 13:24:07;;;;;;;7.30;6.40;;;;;;;;;;5005138;28;20029;-71
2021/12/15 13:29:48;;;;;;;8.00;6.50;;;;;;;;;;5033959;28;20095;-67
2021/12/15 13:32:14;;;;;;;8.93;7.35;;;;;;;;;;5025495;28;20025;-67
2021/12/15 13:34:41;;;;;;;8.82;7.13;;;;;;;;;;5016225;28;20100;-68
2021/12/15 13:37:07;;;;;;;7.25;6.18;;;;;;;;;;5029767;28;20060;-67
2021/12/15 13:39:44;;;;;;;5.80;5.20;;;;;;;;;;5027645;28;20021;-67
2021/12/15 13:42:14;;;;;;;5.25;4.75;;;;;;;;;;5043366;28;20389;-68
2021/12/15 13:44:40;;;;;;;8.68;5.28;;;;;;;;;;5034950;28;20488;-67
2021/12/15 13:47:09;;;;;;;6.28;5.00;;;;;;;;;;5033473;28;20021;-67
2021/12/15 13:49:54;;;;;;;5.53;4.88;;;;;;;;;;5032659;28;20032;-67
2021/12/15 13:52:19;;;;;;;5.22;4.15;;;;;;;;;;5032728;28;20498;-68
2021/12/15 13:54:44;;;;;;;5.22;4.22;;;;;;;;;;5023119;28;20037;-68
2021/12/15 13:57:09;;;;;;;4.63;3.92;;;;;;;;;;5027062;28;20026;-68
2021/12/15 13:59:36;;;;;;;4.45;4.05;;;;;;;;;;5028551;28;20533;-68
2021/12/15 14:02:12;;;;;;;4.03;3.63;;;;;;;;;;5023841;28;20333;-68
2021/12/15 14:04:56;;;;;;;4.10;3.35;;;;;;;;;;5022897;28;20100;-67
2021/12/15 14:07:30;;;;;;;6.75;5.50;;;;;;;;;;5024125;28;20049;-67
2021/12/15 14:09:56;;;;;;;5.93;4.85;;;;;;;;;;5021954;28;20022;-68
2021/12/15 14:12:40;;;;;;;5.32;4.60;;;;;;;;;;5013913;28;20022;-68
2021/12/15 14:15:06;;;;;;;4.35;3.88;;;;;;;;;;5032530;28;20018;-67
2021/12/15 14:17:31;;;;;;;3.78;3.42;;;;;;;;;;5023804;28;20436;-68
2021/12/15 14:19:56;;;;;;;4.00;3.50;;;;;;;;;;5024456;28;20128;-67
2021/12/15 14:22:22;;;;;;;4.60;3.00;;;;;;;;;;5021709;28;20021;-68
2021/12/15 14:24:47;;;;;;;3.42;3.10;;;;;;;;;;5024123;28;20072;-67
2021/12/15 14:27:12;;;;;;;4.75;3.42;;;;;;;;;;5004154;28;20026;-67
2021/12/15 14:29:38;;;;;;;4.32;3.35;;;;;;;;;;5030134;28;20405;-67
2021/12/15 14:32:04;;;;;;;4.00;3.47;;;;;;;;;;5025084;28;20034;-68
2021/12/15 14:34:31;;;;;;;4.30;3.65;;;;;;;;;;5031789;28;20045;-67
2021/12/15 14:36:58;;;;;;;5.10;4.15;;;;;;;;;;5024992;28;20046;-67
2021/12/15 14:39:25;;;;;;;6.50;4.78;;;;;;;;;;5029482;28;20025;-67
2021/12/15 14:41:52;;;;;;;6.78;5.35;;;;;;;;;;5032698;28;20025;-68
2021/12/15 14:44:30;;;;;;;5.93;4.20;;;;;;;;;;5008131;28;20128;-66
2021/12/15 14:47:01;;;;;;;5.40;4.25;;;;;;;;;;5021032;28;20025;-64
2021/12/15 14:49:29;;;;;;;6.47;5.28;;;;;;;;;;5028848;28;20029;-66
2021/12/15 14:51:56;;;;;;;6.75;4.55;;;;;;;;;;5007200;28;20498;-68
2021/12/15 14:54:23;;;;;;;5.70;4.25;;;;;;;;;;5029474;28;20034;-66
2021/12/15 14:56:53;;;;;;;5.10;3.88;;;;;;;;;;5029038;28;20536;-66
2021/12/15 14:59:24;;;;;;;5.03;4.32;;;;;;;;;;5018130;28;20113;-67
2021/12/15 15:01:50;;;;;;;5.97;4.20;;;;;;;;;;5027080;28;20040;-66
2021/12/15 15:04:16;;;;;;;5.45;3.65;;;;;;;;;;5030933;28;20112;-66
2021/12/15 15:06:42;;;;;;;4.90;3.67;;;;;;;;;;5029937;28;20100;-67
2021/12/15 15:09:10;;;;;;;4.25;3.22;;;;;;;;;;5024494;28;20079;-67
2021/12/15 15:11:35;;;;;;;3.88;3.20;;;;;;;;;;5032038;28;20025;-66
2021/12/15 15:14:01;;;;;;;4.43;3.60;;;;;;;;;;5028157;28;20112;-66
2021/12/15 15:16:33;;;;;;;3.85;3.35;;;;;;;;;;5029171;28;20079;-66
2021/12/15 15:19:05;;;;;;;3.15;2.80;;;;;;;;;;5026116;28;20034;-66
2021/12/15 15:21:30;;;;;;;5.97;3.08;;;;;;;;;;5026626;28;20129;-66
2021/12/15 15:23:56;;;;;;;5.53;3.72;;;;;;;;;;5020120;28;20082;-66
2021/12/15 15:26:21;;;;;;;5.25;3.33;;;;;;;;;;5028038;28;20072;-66
2021/12/15 15:28:50;;;;;;;4.85;3.30;;;;;;;;;;5030336;28;20034;-66
2021/12/15 15:31:16;;;;;;;4.10;3.55;;;;;;;;;;5031692;28;20025;-66
2021/12/15 15:33:42;;;;;;;5.55;3.53;;;;;;;;;;5026401;28;20052;-66
2021/12/15 15:36:09;;;;;;;5.07;4.18;;;;;;;;;;5031505;28;20482;-66
2021/12/15 15:38:39;;;;;;;5.35;4.13;;;;;;;;;;5027887;28;20049;-66
2021/12/15 15:41:06;;;;;;;4.90;3.50;;;;;;;;;;5030117;28;20102;-65
2021/12/15 15:43:35;;;;;;;5.28;3.70;;;;;;;;;;5030766;28;20339;-66
2021/12/15 15:46:02;;;;;;;3.75;3.15;;;;;;;;;;5031133;28;20101;-66
2021/12/15 15:48:29;;;;;;;5.45;4.40;;;;;;;;;;5031408;28;20025;-68
2021/12/15 15:50:54;;;;;;;5.05;4.25;;;;;;;;;;5013358;28;20048;-68
2021/12/15 15:53:19;;;;;;;4.45;4.03;;;;;;;;;;5031077;28;20417;-68
2021/12/15 15:55:47;;;;;;;5.00;3.80;;;;;;;;;;5012802;28;20025;-65
2021/12/15 15:58:13;;;;;;;4.25;3.35;;;;;;;;;;5012799;28;20463;-66
2021/12/15 16:00:41;;;;;;;5.22;3.55;;;;;;;;;;5031065;28;20044;-67